Погода Тингакина неделю

Южные Эгейские острова, Греция

31 августа-06 сентября
  • 31августа
    Сегодня
    +24°
    +31°
    Ясно и безоблачно
    ВремяПогодаТемператураВлажностьДавлениеВетер, м/сВероятность осадков
    00:00Ясно и безоблачно+26°C74 %755 мм6.6 м/с2 %
    03:00Ясно и безоблачно+25°C71 %755 мм6.0 м/с2 %
    06:00Ясно и безоблачно+25°C73 %754 мм5.4 м/с2 %
    09:00Ясно и безоблачно+26°C70 %755 мм7.1 м/с2 %
    12:00Ясно и безоблачно+29°C66 %755 мм7.3 м/с2 %
    15:00Ясно и безоблачно+31°C61 %754 мм7.3 м/с2 %
    18:00Ясно и безоблачно+30°C68 %754 мм7.3 м/с2 %
    21:00Ясно и безоблачно+27°C74 %754 мм6.4 м/с2 %
  • 01сентября
    Вторник
    +24°
    +31°
    Ясно и безоблачно
    ВремяПогодаТемператураВлажностьДавлениеВетер, м/сВероятность осадков
    00:00Ясно и безоблачно+26°C78 %754 мм4.8 м/с2 %
    03:00Ясно и безоблачно+24°C84 %754 мм3.0 м/с2 %
    06:00Ясно и безоблачно+24°C82 %754 мм2.9 м/с2 %
    09:00Ясно и безоблачно+27°C71 %754 мм3.3 м/с2 %
    12:00Ясно и безоблачно+30°C66 %755 мм3.1 м/с2 %
    15:00Ясно и безоблачно+31°C62 %755 мм4.4 м/с2 %
    18:00Ясно и безоблачно+30°C68 %754 мм4.6 м/с2 %
    21:00Ясно и безоблачно+26°C77 %755 мм4.0 м/с2 %
  • 02сентября
    Среда
    +24°
    +33°
    Ясно и безоблачно
    ВремяПогодаТемператураВлажностьДавлениеВетер, м/сВероятность осадков
    00:00Ясно и безоблачно+26°C81 %755 мм2.2 м/с2 %
    03:00Ясно и безоблачно+25°C84 %754 мм1.6 м/с2 %
    06:00Ясно и безоблачно+25°C83 %754 мм2.3 м/с2 %
    09:00Ясно и безоблачно+27°C69 %755 мм3.9 м/с2 %
    12:00Ясно и безоблачно+30°C60 %755 мм3.9 м/с2 %
    15:00Ясно и безоблачно+32°C56 %754 мм4.3 м/с2 %
    18:00Ясно и безоблачно+31°C63 %754 мм5.1 м/с2 %
    21:00Ясно и безоблачно+27°C73 %754 мм3.8 м/с2 %
  • 03сентября
    Четверг
    +24°
    +31°
    Ясно и безоблачно
    ВремяПогодаТемператураВлажностьДавлениеВетер, м/сВероятность осадков
    00:00Ясно и безоблачно+26°C75 %754 мм2.2 м/с2 %
    03:00Ясно и безоблачно+25°C82 %753 мм1.7 м/с2 %
    06:00Ясно и безоблачно+24°C85 %753 мм2.3 м/с2 %
    09:00Ясно и безоблачно+27°C70 %753 мм3.4 м/с2 %
    12:00Ясно и безоблачно+30°C62 %753 мм3.4 м/с2 %
    15:00Ясно и безоблачно+31°C59 %752 мм5.8 м/с2 %
    18:00Ясно и безоблачно+29°C62 %752 мм5.7 м/с2 %
    21:00Ясно и безоблачно+26°C77 %752 мм5.2 м/с2 %
  • 04сентября
    Пятница
    +24°
    +31°
    Ясно и безоблачно
    ВремяПогодаТемператураВлажностьДавлениеВетер, м/сВероятность осадков
    00:00Ясно и безоблачно+26°C77 %752 мм5.6 м/с2 %
    03:00Ясно и безоблачно+25°C73 %751 мм6.1 м/с2 %
    06:00Ясно и безоблачно+25°C75 %751 мм6.5 м/с2 %
    09:00Ясно и безоблачно+26°C73 %752 мм7.5 м/с2 %
    12:00Ясно и безоблачно+28°C66 %752 мм8.2 м/с2 %
    15:00Ясно и безоблачно+30°C65 %752 мм9.7 м/с2 %
    18:00Ясно и безоблачно+29°C71 %752 мм11.1 м/с2 %
    21:00Ясно и безоблачно+27°C69 %753 мм10.3 м/с2 %
  • 05сентября
    Суббота
    +24°
    +31°
    Ясно и безоблачно
    ВремяПогодаТемператураВлажностьДавлениеВетер, м/сВероятность осадков
    03:00Ясно и безоблачно+25°C71 %753 мм10.7 м/с2 %
    09:00Ясно и безоблачно+26°C68 %755 мм10.4 м/с2 %
    15:00Ясно и безоблачно+31°C60 %755 мм10.5 м/с2 %
    21:00Ясно и безоблачно+27°C68 %756 мм7.4 м/с2 %
  • 06сентября
    Воскресенье
    +25°
    +29°
    Ясно и безоблачно
    ВремяПогодаТемператураВлажностьДавлениеВетер, м/сВероятность осадков
    03:00Ясно и безоблачно+26°C61 %757 мм8.4 м/с2 %
    09:00Ясно и безоблачно+26°C66 %757 мм6.9 м/с2 %
    15:00Ясно и безоблачно+28°C56 %757 мм7.8 м/с2 %
    21:00Ясно и безоблачно+27°C59 %757 мм8.3 м/с2 %
Мы используем cookies
Соглашаюсь